Time;durP1;ratioP1;P1;durP2;ratioP2;P2;SDS_P1;SDS_P2;PMS_P1;PMS_P2;Temp;Humidity;BMP_temperature;BMP_pressure;BME280_temperature;BME280_humidity;BME280_pressure;Samples;Min_cycle;Max_cycle;Signal;HPM_P1;HPM_P2
2023/01/24 00:01:39;;;;;;;;;24.00;24.00;;;;;6.03;99.51;102939.84;5088884;27;45238;-87
2023/01/24 00:04:04;;;;;;;;;26.25;23.75;;;;;5.99;100.00;102933.88;5091388;27;46411;-86
2023/01/24 00:06:29;;;;;;;;;35.50;29.50;;;;;5.94;99.41;102917.50;5101030;27;46155;-86
2023/01/24 00:08:55;;;;;;;;;26.00;25.75;;;;;6.03;99.59;102934.56;5092124;27;45464;-87
2023/01/24 00:11:20;;;;;;;;;28.25;28.00;;;;;5.94;99.77;102930.69;5098675;27;45208;-87
2023/01/24 00:13:45;;;;;;;;;22.00;21.00;;;;;5.88;99.75;102910.78;5097363;27;45919;-87
2023/01/24 00:16:17;;;;;;;;;30.50;28.25;;;;;5.89;100.00;102922.16;5098161;27;45367;-88
2023/01/24 00:18:43;;;;;;;;;37.75;29.75;;;;;5.92;100.00;102937.84;5102190;27;45178;-87
2023/01/24 00:21:12;;;;;;;;;36.00;29.50;;;;;5.92;100.00;102932.56;5102132;27;45224;-86
2023/01/24 00:23:40;;;;;;;;;27.50;25.50;;;;;5.88;100.00;102928.41;5083567;27;46224;-87
2023/01/24 00:26:06;;;;;;;;;36.00;31.50;;;;;5.89;100.00;102932.72;5083389;27;46498;-87
2023/01/24 00:28:32;;;;;;;;;32.00;31.50;;;;;5.76;100.00;102919.41;5083423;27;45347;-87
2023/01/24 00:30:57;;;;;;;;;27.00;23.75;;;;;5.80;100.00;102928.84;5102125;27;45185;-87
2023/01/24 00:33:23;;;;;;;;;31.50;26.50;;;;;5.82;100.00;102929.59;5083954;27;45590;-86
2023/01/24 00:35:50;;;;;;;;;27.00;23.50;;;;;5.78;100.00;102926.28;5100489;27;47312;-86
2023/01/24 00:38:15;;;;;;;;;29.00;26.50;;;;;5.68;100.00;102907.50;5102189;27;45528;-86
2023/01/24 00:40:41;;;;;;;;;30.50;24.75;;;;;5.77;100.00;102919.31;5101778;27;45741;-87
2023/01/24 00:43:06;;;;;;;;;30.50;27.75;;;;;5.74;100.00;102908.06;5100235;27;45940;-87
2023/01/24 00:45:35;;;;;;;;;44.00;37.75;;;;;5.75;100.00;102912.44;5101810;27;46353;-87
2023/01/24 00:48:00;;;;;;;;;32.75;30.50;;;;;5.69;100.00;102909.19;5101873;27;45446;-86
2023/01/24 00:50:25;;;;;;;;;32.00;29.50;;;;;5.66;100.00;102917.28;5101638;27;45403;-87
2023/01/24 00:52:51;;;;;;;;;32.75;31.00;;;;;5.73;100.00;102920.44;5083503;27;46123;-87
2023/01/24 00:55:16;;;;;;;;;35.75;32.50;;;;;5.72;100.00;102910.81;5101258;27;45387;-88
2023/01/24 00:57:41;;;;;;;;;41.00;35.25;;;;;5.74;100.00;102921.28;5101365;27;45293;-87
2023/01/24 01:00:08;;;;;;;;;36.00;31.75;;;;;5.76;100.00;102922.91;5101473;27;45221;-87
2023/01/24 01:02:33;;;;;;;;;36.00;31.00;;;;;5.76;100.00;102929.97;5101603;27;45622;-87
2023/01/24 01:04:58;;;;;;;;;34.50;31.25;;;;;5.76;100.00;102927.31;5101039;27;45446;-86
2023/01/24 01:07:24;;;;;;;;;46.00;37.25;;;;;5.84;100.00;102930.38;5101262;27;45281;-87
2023/01/24 01:09:50;;;;;;;;;38.00;33.50;;;;;5.89;100.00;102930.94;5083086;27;45207;-86
2023/01/24 01:12:15;;;;;;;;;47.00;39.50;;;;;5.91;100.00;102922.94;5101446;27;45604;-87
2023/01/24 01:14:40;;;;;;;;;50.50;39.25;;;;;6.00;100.00;102922.41;5100510;27;45745;-87
2023/01/24 01:17:06;;;;;;;;;37.50;32.50;;;;;5.99;100.00;102917.22;5096630;27;46167;-86
2023/01/24 01:19:31;;;;;;;;;39.00;36.00;;;;;6.05;100.00;102914.25;5098048;27;45626;-87
2023/01/24 01:21:56;;;;;;;;;42.75;36.50;;;;;6.08;100.00;102936.97;5101134;27;45456;-88
2023/01/24 01:24:22;;;;;;;;;38.75;37.25;;;;;6.15;100.00;102944.47;5087562;27;45452;-87
2023/01/24 01:26:47;;;;;;;;;44.75;39.00;;;;;6.04;100.00;102923.09;5090659;27;45459;-88
2023/01/24 01:29:12;;;;;;;;;42.00;36.50;;;;;6.10;100.00;102911.34;5093155;27;45420;-86
2023/01/24 01:31:38;;;;;;;;;39.75;35.50;;;;;6.11;100.00;102934.16;5089871;27;46069;-87
2023/01/24 01:34:03;;;;;;;;;46.25;39.75;;;;;6.16;100.00;102946.16;5082405;27;46361;-87
2023/01/24 01:36:28;;;;;;;;;40.00;35.25;;;;;6.17;100.00;102936.44;5082579;27;45363;-86
2023/01/24 01:38:54;;;;;;;;;40.75;36.00;;;;;6.20;100.00;102936.25;5100876;27;45456;-86
2023/01/24 01:41:19;;;;;;;;;43.50;39.00;;;;;6.39;100.00;102949.22;5096295;27;46125;-87
2023/01/24 01:46:34;;;;;;;;;41.25;34.75;;;;;6.51;100.00;102923.84;5100902;27;46568;-88
2023/01/24 01:49:04;;;;;;;;;43.00;35.50;;;;;6.66;100.00;102947.63;5082886;27;45749;-87
2023/01/24 01:51:45;;;;;;;;;41.50;31.50;;;;;6.66;100.00;102942.34;5100610;27;45350;-87
2023/01/24 01:54:26;;;;;;;;;40.75;33.75;;;;;6.59;100.00;102948.94;5081972;27;48088;-87
2023/01/24 01:56:59;;;;;;;;;47.50;38.75;;;;;6.26;100.00;102938.50;5082188;27;45214;-87
2023/01/24 01:59:33;;;;;;;;;41.75;36.50;;;;;6.25;100.00;102951.81;5082246;27;45503;-87
2023/01/24 02:02:01;;;;;;;;;52.75;39.25;;;;;6.37;100.00;102972.22;5100302;27;45513;-87
2023/01/24 02:04:31;;;;;;;;;36.00;28.50;;;;;6.40;100.00;102979.09;5081796;27;48012;-87
2023/01/24 02:07:04;;;;;;;;;45.00;37.00;;;;;6.40;100.00;102958.84;5100204;27;45378;-87
2023/01/24 02:09:37;;;;;;;;;39.75;37.50;;;;;6.34;100.00;102961.84;5080413;27;45206;-87
2023/01/24 02:12:07;;;;;;;;;38.75;35.25;;;;;6.31;100.00;102947.03;5089552;27;45508;-86
2023/01/24 02:17:21;;;;;;;;;45.50;38.25;;;;;6.36;100.00;102956.47;5100346;27;45302;-87
2023/01/24 02:20:02;;;;;;;;;42.75;39.25;;;;;6.36;100.00;102959.09;5100151;27;45323;-87
2023/01/24 02:22:36;;;;;;;;;43.00;38.50;;;;;6.38;100.00;102966.00;5099779;27;45532;-88
2023/01/24 02:25:27;;;;;;;;;47.75;38.75;;;;;6.36;100.00;102962.59;5081673;27;46007;-85
2023/01/24 02:27:54;;;;;;;;;41.50;35.50;;;;;6.35;100.00;102952.13;5094858;27;45313;-85
2023/01/24 02:30:20;;;;;;;;;43.50;40.25;;;;;6.35;100.00;102945.06;5092726;27;45213;-86
2023/01/24 02:32:45;;;;;;;;;42.50;38.50;;;;;6.37;100.00;102953.72;5098866;27;47330;-87
2023/01/24 02:35:27;;;;;;;;;45.50;39.25;;;;;6.32;100.00;102932.88;5100186;27;46179;-86
2023/01/24 02:37:55;;;;;;;;;41.50;34.75;;;;;6.35;100.00;102928.34;5081744;27;45395;-87
2023/01/24 02:40:22;;;;;;;;;53.00;38.50;;;;;6.34;100.00;102929.31;5081654;27;45429;-87
2023/01/24 02:42:48;;;;;;;;;41.75;38.75;;;;;6.36;100.00;102936.19;5089851;27;45489;-87
2023/01/24 02:45:19;;;;;;;;;45.50;40.50;;;;;6.39;100.00;102943.94;5095742;27;45408;-87
2023/01/24 02:47:48;;;;;;;;;43.25;38.25;;;;;6.32;100.00;102938.16;5099738;27;45310;-87
2023/01/24 02:50:15;;;;;;;;;47.50;37.75;;;;;6.31;100.00;102948.81;5099504;27;45361;-84
2023/01/24 02:55:24;;;;;;;;;42.75;39.25;;;;;6.36;100.00;102948.53;5099751;27;45418;-86
2023/01/24 02:58:05;;;;;;;;;48.25;38.00;;;;;6.42;100.00;102950.81;5086681;27;45361;-86
2023/01/24 03:00:36;;;;;;;;;47.50;39.75;;;;;6.39;100.00;102945.72;5087454;27;45549;-86
2023/01/24 03:03:02;;;;;;;;;28.00;23.50;;;;;6.37;100.00;102947.63;5081009;27;46798;-86
2023/01/24 03:05:39;;;;;;;;;43.50;36.00;;;;;6.35;100.00;102937.16;5099450;27;45342;-87
2023/01/24 03:08:08;;;;;;;;;37.50;34.25;;;;;6.31;100.00;102946.16;5081068;27;45312;-87
2023/01/24 03:10:34;;;;;;;;;44.50;39.75;;;;;6.29;100.00;102938.34;5078034;28;45445;-88
2023/01/24 03:34:53;;;;;;;;;38.00;34.25;;;;;6.21;100.00;102948.53;5098510;27;45322;-88
2023/01/24 03:40:11;;;;;;;;;49.25;39.25;;;;;6.24;100.00;102940.41;5099395;27;45269;-87
2023/01/24 03:42:46;;;;;;;;;40.75;34.75;;;;;6.48;100.00;102937.25;5083544;27;45289;-87
2023/01/24 03:45:16;;;;;;;;;42.25;35.75;;;;;6.65;100.00;102938.00;5102495;27;45595;-87
2023/01/24 03:47:45;;;;;;;;;35.50;32.75;;;;;6.64;100.00;102939.78;5084328;27;48032;-87
2023/01/24 03:52:55;;;;;;;;;42.75;36.25;;;;;6.72;100.00;102935.81;5102584;27;45453;-86
2023/01/24 03:55:20;;;;;;;;;37.50;34.25;;;;;6.77;99.41;102939.88;5097582;27;46103;-87
2023/01/24 03:57:47;;;;;;;;;36.25;34.25;;;;;6.80;99.79;102946.78;5082189;28;45268;-87
2023/01/24 04:00:13;;;;;;;;;40.25;36.00;;;;;6.72;99.23;102930.53;5101186;27;45226;-86
2023/01/24 04:02:38;;;;;;;;;41.50;32.25;;;;;6.79;99.38;102947.72;5090200;27;45265;-87
2023/01/24 04:05:12;;;;;;;;;44.25;36.50;;;;;6.77;99.36;102941.69;5099482;27;46133;-88
2023/01/24 04:07:38;;;;;;;;;40.00;36.00;;;;;6.78;99.22;102949.53;5102170;27;45707;-87
2023/01/24 04:10:04;;;;;;;;;36.50;34.00;;;;;6.81;99.31;102941.41;5084047;27;45266;-86
2023/01/24 04:12:29;;;;;;;;;39.25;36.00;;;;;6.81;99.86;102935.25;5095510;27;45468;-87
2023/01/24 04:14:54;;;;;;;;;37.50;36.00;;;;;6.87;99.09;102936.66;5093988;27;47159;-87
2023/01/24 04:17:20;;;;;;;;;39.50;34.50;;;;;6.77;98.92;102921.38;5095659;27;45237;-86
2023/01/24 04:19:46;;;;;;;;;39.25;34.75;;;;;6.85;98.87;102944.69;5083991;27;45622;-87
2023/01/24 04:22:11;;;;;;;;;43.75;36.75;;;;;6.88;99.02;102930.47;5102460;27;45428;-87
2023/01/24 04:24:37;;;;;;;;;34.00;30.50;;;;;6.86;98.93;102935.84;5088826;27;45372;-87
2023/01/24 04:27:02;;;;;;;;;42.00;37.75;;;;;6.94;98.84;102938.84;5083757;27;48272;-87
2023/01/24 04:29:28;;;;;;;;;41.25;34.00;;;;;6.91;98.80;102930.25;5101854;27;45432;-87
2023/01/24 04:31:53;;;;;;;;;37.00;35.75;;;;;6.99;98.96;102935.91;5102013;27;45387;-87
2023/01/24 04:34:19;;;;;;;;;44.25;34.50;;;;;6.76;98.51;102937.38;5100804;27;45812;-88
2023/01/24 04:36:44;;;;;;;;;41.00;36.00;;;;;6.66;99.23;102937.06;5079958;27;46937;-87
2023/01/24 04:39:09;;;;;;;;;31.75;30.50;;;;;6.49;100.00;102932.81;5102230;27;45427;-88
2023/01/24 04:41:35;;;;;;;;;36.00;33.25;;;;;6.67;99.70;102947.53;5083742;27;45331;-87
2023/01/24 04:44:00;;;;;;;;;42.75;36.00;;;;;6.53;100.00;102944.91;5082896;27;47442;-88
2023/01/24 04:46:27;;;;;;;;;42.25;38.50;;;;;6.57;100.00;102941.13;5101899;27;46569;-88
2023/01/24 04:48:52;;;;;;;;;40.25;36.25;;;;;6.50;100.00;102932.69;5087686;27;45236;-88
2023/01/24 04:51:18;;;;;;;;;35.25;34.50;;;;;6.57;100.00;102949.03;5070291;28;45242;-88
2023/01/24 04:53:43;;;;;;;;;39.25;36.00;;;;;6.54;100.00;102943.94;5078371;28;46300;-87
2023/01/24 04:56:08;;;;;;;;;41.00;36.50;;;;;6.57;100.00;102959.63;5076431;27;48174;-87
2023/01/24 04:58:34;;;;;;;;;32.75;29.00;;;;;6.56;100.00;102955.28;5096408;27;45392;-88
2023/01/24 05:01:00;;;;;;;;;38.00;33.50;;;;;6.53;100.00;102958.09;5093372;27;45216;-87
2023/01/24 05:03:26;;;;;;;;;40.00;34.00;;;;;6.51;100.00;102954.69;5096633;27;47441;-87
2023/01/24 05:05:53;;;;;;;;;41.75;36.00;;;;;6.45;100.00;102945.34;5092480;27;45432;-85
2023/01/24 05:08:19;;;;;;;;;23.00;20.50;;;;;6.36;100.00;102938.84;5100922;27;45520;-87
2023/01/24 05:10:44;;;;;;;;;40.25;34.50;;;;;6.40;100.00;102945.63;5083137;27;45346;-87
2023/01/24 05:13:10;;;;;;;;;40.50;36.25;;;;;6.38;100.00;102936.09;5100773;27;45392;-87
2023/01/24 05:15:35;;;;;;;;;26.00;23.00;;;;;6.48;100.00;102954.88;5099927;27;48111;-88
2023/01/24 05:18:01;;;;;;;;;33.00;30.25;;;;;6.41;100.00;102951.78;5082953;27;46256;-87
2023/01/24 05:20:27;;;;;;;;;41.50;36.75;;;;;6.35;100.00;102944.22;5101348;27;45490;-87
2023/01/24 05:22:55;;;;;;;;;41.50;38.00;;;;;6.40;100.00;102971.19;5100853;27;45277;-88
2023/01/24 05:25:20;;;;;;;;;45.75;37.25;;;;;6.32;100.00;102955.81;5082588;27;47296;-88
2023/01/24 05:27:46;;;;;;;;;40.75;35.00;;;;;6.38;100.00;102976.56;5100100;27;45629;-88
2023/01/24 05:30:11;;;;;;;;;38.00;34.75;;;;;6.38;100.00;102962.53;5101117;27;45319;-87
2023/01/24 05:32:37;;;;;;;;;31.25;28.50;;;;;6.42;100.00;102962.25;5077387;28;45441;-87
2023/01/24 05:35:03;;;;;;;;;41.50;37.25;;;;;6.41;100.00;102960.53;5074462;27;48190;-86
2023/01/24 05:37:29;;;;;;;;;39.50;36.75;;;;;6.39;100.00;102964.22;5100774;27;45500;-86
2023/01/24 05:39:54;;;;;;;;;41.25;36.00;;;;;6.37;100.00;102948.44;5082815;27;45386;-87
2023/01/24 05:42:19;;;;;;;;;36.00;35.00;;;;;6.36;100.00;102951.19;5100496;27;45332;-88
2023/01/24 05:44:45;;;;;;;;;40.00;33.25;;;;;6.44;100.00;102960.34;5082211;27;47022;-86
2023/01/24 05:47:10;;;;;;;;;38.75;36.25;;;;;6.49;100.00;102965.34;5082283;27;45267;-87
2023/01/24 05:49:35;;;;;;;;;43.25;38.25;;;;;6.40;100.00;102953.56;5100809;27;45441;-87
2023/01/24 05:52:01;;;;;;;;;42.50;38.00;;;;;6.47;100.00;102958.47;5082126;27;46806;-88
2023/01/24 05:54:26;;;;;;;;;35.75;32.50;;;;;6.37;100.00;102951.09;5100688;27;45400;-87
2023/01/24 05:56:52;;;;;;;;;33.75;32.50;;;;;6.40;100.00;102961.47;5082270;27;45245;-87
2023/01/24 05:59:17;;;;;;;;;41.25;34.75;;;;;6.42;100.00;102964.03;5089288;27;45202;-87
2023/01/24 06:01:43;;;;;;;;;37.00;35.00;;;;;6.46;100.00;102960.25;5093557;27;46198;-87
2023/01/24 06:04:08;;;;;;;;;39.75;35.50;;;;;6.47;100.00;102961.13;5072442;27;47109;-88
2023/01/24 06:06:33;;;;;;;;;38.00;33.50;;;;;6.48;100.00;102963.66;5098582;27;45396;-87
2023/01/24 06:08:59;;;;;;;;;43.00;37.00;;;;;6.45;100.00;102966.50;5099491;27;45225;-86
2023/01/24 06:11:27;;;;;;;;;46.50;40.25;;;;;6.40;100.00;102965.91;5095776;27;46849;-87
2023/01/24 06:13:55;;;;;;;;;42.25;36.50;;;;;6.46;100.00;102983.19;5072463;27;48315;-87
2023/01/24 06:16:23;;;;;;;;;45.50;38.50;;;;;6.36;100.00;102978.47;5097975;27;45344;-87
2023/01/24 06:18:50;;;;;;;;;48.00;40.75;;;;;6.40;100.00;102981.75;5082162;27;45268;-87
2023/01/24 06:21:40;;;;;;;;;44.00;38.50;;;;;6.46;100.00;102999.88;5079412;27;45545;-86
2023/01/24 06:24:13;;;;;;;;;39.75;36.75;;;;;6.50;100.00;103008.50;5098037;27;46208;-85
2023/01/24 06:26:38;;;;;;;;;39.25;34.00;;;;;6.41;100.00;102986.13;5081481;27;45549;-85
2023/01/24 06:29:04;;;;;;;;;38.75;35.00;;;;;6.47;100.00;102992.81;5081259;27;45314;-83
2023/01/24 06:31:57;;;;;;;;;41.25;39.00;;;;;6.49;100.00;103009.44;5098560;27;46059;-85
2023/01/24 06:34:25;;;;;;;;;46.00;40.00;;;;;6.50;100.00;103014.59;5100028;27;46595;-83
2023/01/24 06:37:14;;;;;;;;;49.75;39.75;;;;;6.53;100.00;103011.78;5081536;27;45285;-83
2023/01/24 06:39:43;;;;;;;;;44.25;38.25;;;;;6.59;100.00;103013.22;5081685;27;45270;-83
2023/01/24 06:42:09;;;;;;;;;43.25;36.50;;;;;6.62;100.00;103020.13;5099536;27;45505;-82
2023/01/24 06:44:35;;;;;;;;;37.25;31.50;;;;;6.61;100.00;103013.13;5099581;27;45492;-84
2023/01/24 06:47:00;;;;;;;;;44.25;38.50;;;;;6.62;100.00;103020.13;5081450;27;45460;-84
2023/01/24 06:49:25;;;;;;;;;46.00;38.75;;;;;6.59;100.00;103007.09;5099779;27;45327;-86
2023/01/24 06:51:52;;;;;;;;;48.75;40.75;;;;;6.65;100.00;103031.34;5081487;27;47449;-86
2023/01/24 06:54:17;;;;;;;;;49.00;39.75;;;;;6.60;100.00;103009.63;5077928;27;47273;-86
2023/01/24 06:56:43;;;;;;;;;50.50;40.75;;;;;6.60;100.00;103000.84;5088821;27;45180;-86
2023/01/24 06:59:08;;;;;;;;;48.25;39.25;;;;;6.62;100.00;103004.25;5099792;27;45227;-87
2023/01/24 07:01:33;;;;;;;;;50.75;40.50;;;;;6.61;100.00;103013.13;5074000;27;47345;-87
2023/01/24 07:03:59;;;;;;;;;45.50;39.25;;;;;6.73;100.00;103016.84;5099527;27;45269;-88
2023/01/24 07:06:25;;;;;;;;;52.75;42.50;;;;;6.75;100.00;103018.44;5094832;27;45293;-91
2023/01/24 07:08:50;;;;;;;;;43.50;36.25;;;;;6.67;100.00;103007.47;5093848;27;45322;-88
2023/01/24 07:11:15;;;;;;;;;53.75;41.25;;;;;6.65;100.00;103020.75;5081992;27;47322;-90
2023/01/24 07:13:40;;;;;;;;;39.00;36.25;;;;;7.00;100.00;103019.56;5100041;27;45369;-89
2023/01/24 07:16:06;;;;;;;;;42.00;36.25;;;;;7.13;100.00;103019.69;5082223;27;45807;-84
2023/01/24 07:18:32;;;;;;;;;48.00;39.50;;;;;7.11;100.00;103010.13;5103537;27;45349;-89
2023/01/24 07:20:57;;;;;;;;;44.50;39.00;;;;;6.89;100.00;103022.03;5083705;27;47097;-88
2023/01/24 07:23:28;;;;;;;;;42.00;36.75;;;;;6.76;100.00;103020.13;5104380;27;46297;-88
2023/01/24 07:25:54;;;;;;;;;51.25;42.00;;;;;6.72;100.00;103017.75;5089430;27;45232;-88
2023/01/24 07:28:20;;;;;;;;;46.50;39.00;;;;;6.68;100.00;103017.94;5104909;27;45392;-87
2023/01/24 07:30:46;;;;;;;;;43.00;37.25;;;;;6.64;100.00;103019.06;5069912;28;45965;-89
2023/01/24 07:33:13;;;;;;;;;52.50;43.00;;;;;6.71;100.00;103034.56;5094998;27;46354;-88
2023/01/24 07:35:39;;;;;;;;;46.25;39.75;;;;;6.74;100.00;103047.59;5105695;27;45313;-86
2023/01/24 07:38:05;;;;;;;;;66.00;52.25;;;;;6.74;100.00;103043.19;5096815;27;45240;-77
2023/01/24 07:40:31;;;;;;;;;48.50;41.75;;;;;6.70;100.00;103039.00;5082984;27;45497;-77
2023/01/24 07:43:00;;;;;;;;;49.75;39.00;;;;;6.73;100.00;103059.13;5102339;27;46172;-78
2023/01/24 07:45:26;;;;;;;;;45.25;39.00;;;;;6.72;100.00;103062.69;5084148;27;45567;-78
2023/01/24 07:47:59;;;;;;;;;49.50;40.25;;;;;6.66;100.00;103056.84;5102849;27;45451;-77
2023/01/24 07:50:26;;;;;;;;;46.00;39.75;;;;;6.70;100.00;103060.13;5102546;27;45306;-77
2023/01/24 07:52:52;;;;;;;;;46.75;39.50;;;;;6.76;100.00;103062.41;5102254;27;45524;-77
2023/01/24 07:55:19;;;;;;;;;51.25;41.25;;;;;6.71;100.00;103056.56;5083966;27;45389;-77
2023/01/24 07:57:44;;;;;;;;;47.00;38.25;;;;;6.69;100.00;103069.88;5102130;27;45341;-77
2023/01/24 08:00:10;;;;;;;;;52.00;42.00;;;;;6.66;100.00;103066.56;5083667;27;47543;-77
2023/01/24 08:02:35;;;;;;;;;57.00;45.50;;;;;6.64;100.00;103064.00;5102170;27;45464;-78
2023/01/24 08:05:01;;;;;;;;;49.75;40.25;;;;;6.62;100.00;103065.03;5101887;27;45418;-77
2023/01/24 08:07:26;;;;;;;;;54.00;44.50;;;;;6.64;100.00;103061.34;5102084;27;45267;-79
2023/01/24 08:09:52;;;;;;;;;59.25;44.75;;;;;6.64;100.00;103068.44;5098444;27;45448;-79
2023/01/24 08:12:17;;;;;;;;;53.00;39.25;;;;;6.61;100.00;103072.09;5083403;27;47343;-78
2023/01/24 08:14:43;;;;;;;;;52.00;40.25;;;;;6.63;100.00;103070.22;5102013;27;45204;-78
2023/01/24 08:17:11;;;;;;;;;59.00;48.00;;;;;6.61;100.00;103064.19;5102287;27;45221;-78
2023/01/24 08:19:37;;;;;;;;;52.75;43.00;;;;;6.64;100.00;103069.28;5083373;27;47451;-78
2023/01/24 08:22:03;;;;;;;;;62.00;47.25;;;;;6.66;100.00;103079.75;5101704;27;46132;-78
2023/01/24 08:24:28;;;;;;;;;58.50;46.75;;;;;6.64;100.00;103074.56;5083057;27;45468;-79
2023/01/24 08:26:54;;;;;;;;;50.75;41.75;;;;;6.73;100.00;103075.81;5087660;27;45877;-78
2023/01/24 08:29:19;;;;;;;;;48.50;40.25;;;;;6.69;100.00;103077.81;5096424;27;45509;-78
2023/01/24 08:31:44;;;;;;;;;37.00;34.00;;;;;6.72;100.00;103078.53;5086987;27;46097;-82
2023/01/24 08:34:10;;;;;;;;;61.50;44.00;;;;;6.66;100.00;103074.47;5075633;27;45450;-82
2023/01/24 08:36:35;;;;;;;;;50.75;41.25;;;;;6.64;100.00;103084.28;5085199;27;45470;-83
2023/01/24 08:39:02;;;;;;;;;49.50;41.00;;;;;6.60;100.00;103078.34;5100831;27;45550;-81
2023/01/24 08:41:28;;;;;;;;;56.25;44.25;;;;;6.64;100.00;103093.06;5093035;27;45302;-83
2023/01/24 08:43:53;;;;;;;;;52.50;43.00;;;;;6.63;100.00;103094.03;5101081;27;45360;-79
2023/01/24 08:46:19;;;;;;;;;46.75;39.00;;;;;6.67;100.00;103095.53;5100255;27;45221;-79
2023/01/24 08:48:44;;;;;;;;;49.50;40.75;;;;;6.68;100.00;103093.75;5101353;27;45307;-78
2023/01/24 08:51:10;;;;;;;;;50.50;41.00;;;;;6.64;100.00;103094.84;5081225;27;48057;-79
2023/01/24 08:53:35;;;;;;;;;45.75;40.25;;;;;6.63;100.00;103088.72;5100833;27;45493;-78
2023/01/24 08:56:01;;;;;;;;;58.00;44.25;;;;;6.71;100.00;103098.00;5101771;27;45322;-78
2023/01/24 08:58:27;;;;;;;;;52.75;41.25;;;;;6.71;100.00;103096.22;5082799;27;45908;-78
2023/01/24 09:00:52;;;;;;;;;50.25;40.00;;;;;6.69;100.00;103112.16;5100881;27;45357;-79
2023/01/24 09:03:18;;;;;;;;;50.00;40.75;;;;;6.65;100.00;103105.34;5082824;27;45940;-77
2023/01/24 09:05:44;;;;;;;;;36.25;33.50;;;;;6.69;100.00;103106.03;5101369;27;45451;-79
2023/01/24 09:08:10;;;;;;;;;52.25;43.75;;;;;6.65;100.00;103100.03;5076343;27;45966;-79
2023/01/24 09:10:36;;;;;;;;;55.00;44.00;;;;;6.75;100.00;103118.88;5083763;27;46808;-80
2023/01/24 09:13:04;;;;;;;;;51.75;42.25;;;;;6.75;100.00;103108.31;5080726;27;45658;-83
2023/01/24 09:15:30;;;;;;;;;54.50;43.50;;;;;6.87;100.00;103114.66;5097387;27;45389;-83
2023/01/24 09:18:00;;;;;;;;;44.50;38.50;;;;;6.90;100.00;103121.53;5072502;27;46535;-82
2023/01/24 09:20:26;;;;;;;;;59.50;45.25;;;;;6.74;100.00;103100.47;5085375;27;45941;-81
2023/01/24 09:22:51;;;;;;;;;49.75;40.75;;;;;6.82;100.00;103114.94;5088573;27;45708;-80
2023/01/24 09:25:16;;;;;;;;;52.00;42.50;;;;;6.84;100.00;103124.56;5081165;27;45535;-80
2023/01/24 09:27:42;;;;;;;;;47.50;41.00;;;;;6.88;100.00;103126.09;5091432;27;45729;-84
2023/01/24 09:30:08;;;;;;;;;49.75;42.00;;;;;6.87;100.00;103113.78;5097808;27;45637;-84
2023/01/24 09:32:34;;;;;;;;;53.00;41.50;;;;;6.90;100.00;103119.75;5095190;27;45444;-79
2023/01/24 09:35:00;;;;;;;;;46.50;36.25;;;;;7.00;100.00;103116.59;5099563;27;45418;-79
2023/01/24 09:37:26;;;;;;;;;55.25;43.00;;;;;6.94;100.00;103121.28;5081360;27;45803;-79
2023/01/24 09:39:55;;;;;;;;;54.50;44.00;;;;;6.90;100.00;103117.13;5098244;27;47100;-79
2023/01/24 09:43:12;;;;;;;;;55.75;40.00;;;;;6.92;100.00;103123.16;5099207;27;45434;-79
2023/01/24 09:45:49;;;;;;;;;53.50;43.25;;;;;6.93;100.00;103127.53;5016989;28;45496;-79
2023/01/24 09:48:18;;;;;;;;;52.75;42.00;;;;;6.81;100.00;103117.66;5097035;27;45332;-77
2023/01/24 09:50:57;;;;;;;;;51.25;41.75;;;;;6.81;100.00;103117.66;5080328;27;47568;-78
2023/01/24 09:53:41;;;;;;;;;61.00;46.75;;;;;6.77;100.00;103116.16;5080556;27;46027;-79
2023/01/24 09:56:11;;;;;;;;;50.50;43.50;;;;;6.81;100.00;103120.31;5099290;27;45342;-78
2023/01/24 09:58:43;;;;;;;;;58.50;44.50;;;;;6.75;100.00;103110.09;5098754;27;45423;-78
2023/01/24 10:01:14;;;;;;;;;51.25;40.75;;;;;6.81;100.00;103126.44;5098363;27;46997;-79
2023/01/24 10:03:41;;;;;;;;;50.75;41.75;;;;;6.88;100.00;103132.22;5076679;27;45790;-78
2023/01/24 10:06:23;;;;;;;;;50.25;40.50;;;;;6.91;100.00;103133.81;5092048;27;45318;-78
2023/01/24 10:09:19;;;;;;;;;54.75;43.00;;;;;6.98;100.00;103142.25;5085811;27;45336;-79
2023/01/24 10:11:59;;;;;;;;;52.25;41.75;;;;;7.01;100.00;103137.66;5097811;27;46130;-78
2023/01/24 10:14:42;;;;;;;;;57.25;46.25;;;;;7.00;100.00;103133.28;5103793;27;45440;-78
2023/01/24 10:17:28;;;;;;;;;46.75;41.25;;;;;7.04;100.00;103126.84;5093433;27;45302;-79
2023/01/24 10:19:59;;;;;;;;;54.00;41.75;;;;;7.14;100.00;103129.81;5073935;27;46158;-77
2023/01/24 10:22:50;;;;;;;;;53.25;43.50;;;;;7.19;100.00;103138.31;5096527;27;45691;-79
2023/01/24 10:25:21;;;;;;;;;53.75;41.50;;;;;7.22;100.00;103136.44;5077165;27;45459;-78
2023/01/24 10:27:51;;;;;;;;;44.00;39.25;;;;;7.20;100.00;103124.16;5096835;27;45433;-80
2023/01/24 10:30:22;;;;;;;;;56.25;46.00;;;;;7.24;100.00;103132.75;5097491;27;45464;-77
2023/01/24 10:32:52;;;;;;;;;47.75;39.00;;;;;7.26;100.00;103132.66;5098209;27;46490;-79
2023/01/24 10:35:25;;;;;;;;;52.50;41.75;;;;;7.18;100.00;103118.09;5098335;27;45465;-79
2023/01/24 10:37:55;;;;;;;;;57.25;45.75;;;;;7.23;100.00;103116.97;5095864;27;45437;-78
2023/01/24 10:40:24;;;;;;;;;45.50;38.50;;;;;7.25;100.00;103120.38;5079065;27;45815;-79
2023/01/24 10:42:50;;;;;;;;;50.00;40.00;;;;;7.23;100.00;103114.31;5098360;27;45338;-79
2023/01/24 10:45:40;;;;;;;;;54.00;45.00;;;;;7.31;100.00;103126.13;5098136;27;45276;-78
2023/01/24 10:48:40;;;;;;;;;53.75;42.50;;;;;7.35;100.00;103107.44;5099703;27;45647;-79
2023/01/24 10:51:18;;;;;;;;;48.50;41.75;;;;;7.40;100.00;103110.66;5075957;27;47232;-78
2023/01/24 10:53:44;;;;;;;;;46.50;38.50;;;;;7.50;100.00;103110.91;5106462;27;45317;-77
2023/01/24 10:56:11;;;;;;;;;53.00;42.50;;;;;7.44;100.00;103101.56;5106334;27;45462;-78
2023/01/24 10:58:53;;;;;;;;;53.50;41.75;;;;;7.52;100.00;103109.03;5088864;27;45415;-78
2023/01/24 11:01:22;;;;;;;;;42.50;36.75;;;;;7.47;100.00;103108.47;5106008;27;45332;-78
2023/01/24 11:03:51;;;;;;;;;51.75;41.00;;;;;7.55;100.00;103112.31;5087792;27;48182;-79
2023/01/24 11:06:36;;;;;;;;;46.00;39.50;;;;;7.55;100.00;103108.84;5105747;27;45500;-77
2023/01/24 11:09:14;;;;;;;;;44.25;35.25;;;;;7.60;100.00;103111.22;5105961;27;45472;-79
2023/01/24 11:11:45;;;;;;;;;47.50;39.50;;;;;7.61;100.00;103113.75;5105684;27;45935;-78
2023/01/24 11:14:17;;;;;;;;;49.75;41.50;;;;;7.65;100.00;103104.69;5105693;27;45610;-78
2023/01/24 11:16:50;;;;;;;;;54.75;44.50;;;;;7.75;100.00;103098.81;5087870;27;45558;-76
2023/01/24 11:19:24;;;;;;;;;48.75;40.50;;;;;7.73;100.00;103100.69;5105915;27;45379;-79
2023/01/24 11:21:52;;;;;;;;;46.00;39.75;;;;;7.78;100.00;103095.97;5106173;27;45359;-77
2023/01/24 11:24:19;;;;;;;;;52.00;42.50;;;;;7.78;100.00;103098.63;5087035;27;48469;-77
2023/01/24 11:27:00;;;;;;;;;54.00;43.75;;;;;7.79;100.00;103101.16;5087736;27;45385;-78
2023/01/24 11:29:26;;;;;;;;;45.50;37.25;;;;;7.80;100.00;103096.72;5105550;27;45304;-77
2023/01/24 11:31:55;;;;;;;;;51.75;42.25;;;;;7.85;100.00;103094.63;5106180;27;45519;-76
2023/01/24 11:34:32;;;;;;;;;43.00;38.00;;;;;7.87;100.00;103091.88;5105583;27;45224;-79
2023/01/24 11:37:17;;;;;;;;;43.50;38.75;;;;;7.78;100.00;103088.03;5087499;27;45451;-77
2023/01/24 11:40:02;;;;;;;;;50.00;38.75;;;;;7.79;100.00;103089.72;5105847;27;45323;-78
2023/01/24 11:42:38;;;;;;;;;42.75;38.25;;;;;7.79;100.00;103087.06;5087040;27;47394;-78
2023/01/24 11:45:20;;;;;;;;;54.25;41.00;;;;;7.76;100.00;103082.81;5105902;27;45469;-78
2023/01/24 11:48:03;;;;;;;;;43.25;39.00;;;;;7.72;100.00;103083.13;5100647;27;45995;-80
2023/01/24 11:50:45;;;;;;;;;40.50;36.00;;;;;7.74;100.00;103084.72;5101953;27;45503;-81
2023/01/24 11:53:23;;;;;;;;;50.50;43.50;;;;;7.69;100.00;103071.78;5103876;27;45505;-82